Detall de PIREP

Printer-friendly versionPDF version

[2012/01/13 21:16:00]
Flight IATA:CT3115
Pilot Number:037
Company ICAO:CAT
Aircraft Type:B752/E
PAX:101
Departing Airport: LEVC
Destination Airport: LEBL
Alternate Airport:LEPA
Online: VATSIM
Route:TATOS A34 SAURA R60 MATEX

Flight Level:F200
No Slew and time accel
No pause
Crash detect
Detect pilot in Cockpit between each 30 and 45 minutes
21:16 Zero fuel Weight: 158057 Lbs, Fuel Weight: 15467 Lbs
21:16 VATSIM:LEVC 132100Z 34003KT 6000 FEW060 10/07 Q1023 NOSIG
21:16 VATSIM:LEBL 132100Z 33021KT 9999 FEW025 05/00 Q1022 NOSIG
21:25 Take-off
21:25 Take off Weight: 172725 Lbs
21:25 Wind: 343º @ 003 Knots Heading: 296º
21:25 POS N39º 29´ 27´´ W000º 29´ 10´´
21:25 Flaps:2 at 205 Knots
21:25 Gear Up: 230 Knots
21:25 Flaps:1 at 243 Knots
21:25 Flaps:0 at 241 Knots
21:29 TOC
21:29 Fuel Weight: 12981 Lb
21:30 TOD
21:30 Fuel Weight: 12878 Lb
21:30 TOC
21:30 Fuel Weight: 12842 Lb
21:45 TOD
21:45 Fuel Weight: 10722 Lb
21:55 Flaps:1 at 211 Knots
21:56 Gear Down: 195 Knots
21:56 Flaps:2 at 173 Knots
21:57 Flaps:3 at 168 Knots
21:57 Flaps:4 at 161 Knots
21:58 Flaps:5 at 169 Knots
21:58 Flaps:6 at 171 Knots
21:59 TOC
21:59 Fuel Weight: 9848 Lb
21:59 TouchDown:Rate -382 ft/min Speed: 141 Knots
21:59 VATSIM:LEBL 132130Z 32018KT 9999 FEW025 05/00 Q1022 NOSIG
21:59 Land
21:59 Wind:322º@017 Knots
21:59 Heading: 017º
21:59 Flight Duration: 00:34
21:59 Landing Weight: 167872 Lbs
21:59 POS N41º 18´ 14´´ E002º 05´ 31´´
22:04 Parking brakes on
22:04 Block to Block Duration: 00:39
22:04 Final Fuel: 9254 Lbls
22:04 Spent Fuel: 6212 Lbls
22:04 Flight Length: 87 NM
22:04 TOD Land Length: 00 NM

Exportar CSV

Powered by Drupal - Modified by Danger4k